createdAt,value
2022-11-23T00:00:30.916Z,0.22
2022-11-23T00:03:00.920Z,0.21
2022-11-23T00:05:30.480Z,0.18
2022-11-23T00:07:59.485Z,0.18
2022-11-23T00:10:32.076Z,0.22
2022-11-23T00:13:01.293Z,0.21
2022-11-23T00:15:33.267Z,0.21
2022-11-23T00:18:01.318Z,0.19
2022-11-23T00:20:29.349Z,0.22
2022-11-23T00:22:57.331Z,0.22
2022-11-23T00:25:30.006Z,0.21
2022-11-23T00:27:59.316Z,0.21
2022-11-23T00:30:29.010Z,0.21
2022-11-23T00:32:57.805Z,0.21
2022-11-23T00:35:29.466Z,0.18
2022-11-23T00:37:58.603Z,0.22
2022-11-23T00:40:26.706Z,0.22
2022-11-23T00:42:56.105Z,0.24
2022-11-23T00:45:25.630Z,0.25
2022-11-23T00:47:56.563Z,0.25
2022-11-23T00:50:25.749Z,0.27
2022-11-23T00:52:56.101Z,0.29
2022-11-23T00:55:24.684Z,0.31
2022-11-23T00:57:52.933Z,0.31
2022-11-23T01:00:21.505Z,0.33
2022-11-23T01:02:54.027Z,0.35
2022-11-23T01:05:22.361Z,0.35
2022-11-23T01:07:50.823Z,0.37
2022-11-23T01:10:20.305Z,0.37
2022-11-23T01:12:48.269Z,0.40
2022-11-23T01:15:16.811Z,0.38
2022-11-23T01:17:45.875Z,0.41
2022-11-23T01:20:16.947Z,0.44
2022-11-23T01:22:46.323Z,0.44
2022-11-23T01:25:14.490Z,0.48
2022-11-23T01:27:42.773Z,0.46
2022-11-23T01:30:13.815Z,0.49
2022-11-23T01:32:43.265Z,0.49
2022-11-23T01:35:12.308Z,0.49
2022-11-23T01:37:41.611Z,0.51
2022-11-23T01:40:11.768Z,0.52
2022-11-23T01:42:48.514Z,0.54
2022-11-23T01:45:39.147Z,0.55
2022-11-23T01:48:12.837Z,0.61
2022-11-23T01:50:47.068Z,0.58
2022-11-23T01:53:17.913Z,0.56
2022-11-23T01:55:48.908Z,0.59
2022-11-23T01:58:23.415Z,0.59
2022-11-23T02:00:52.229Z,0.61
2022-11-23T02:03:20.764Z,0.64
2022-11-23T02:05:54.370Z,0.65
2022-11-23T02:08:24.042Z,0.68
2022-11-23T02:10:52.081Z,0.69
2022-11-23T02:13:20.922Z,0.68
2022-11-23T02:15:49.346Z,0.68
2022-11-23T02:18:18.865Z,0.68
2022-11-23T02:20:47.068Z,0.68
2022-11-23T02:23:26.106Z,0.66
2022-11-23T02:26:01.831Z,0.66
2022-11-23T02:28:32.615Z,0.69
2022-11-23T02:31:01.625Z,0.66
2022-11-23T02:33:29.835Z,0.68
2022-11-23T02:35:59.796Z,0.66
2022-11-23T02:38:31.795Z,0.65
2022-11-23T02:41:03.658Z,0.65
2022-11-23T02:43:33.084Z,0.62
2022-11-23T02:46:03.878Z,0.64
2022-11-23T02:48:32.723Z,0.66
2022-11-23T02:51:00.638Z,0.68
2022-11-23T02:53:28.813Z,0.70
2022-11-23T02:55:58.035Z,0.70
2022-11-23T02:58:30.457Z,0.75
2022-11-23T03:00:59.193Z,0.75
2022-11-23T03:03:27.903Z,0.76
2022-11-23T03:05:59.009Z,0.77
2022-11-23T03:08:27.121Z,0.76
2022-11-23T03:10:56.901Z,0.76
2022-11-23T03:13:24.985Z,0.76
2022-11-23T03:15:56.894Z,0.80
2022-11-23T03:18:24.985Z,0.76
2022-11-23T03:20:56.925Z,0.77
2022-11-23T03:23:25.323Z,0.77
2022-11-23T03:25:56.444Z,0.76
2022-11-23T03:28:24.422Z,0.76
2022-11-23T03:30:53.862Z,0.77
2022-11-23T03:33:22.248Z,0.76
2022-11-23T03:35:51.671Z,0.82
2022-11-23T03:38:19.745Z,0.82
2022-11-23T03:40:49.705Z,0.83
2022-11-23T03:43:18.446Z,0.82
2022-11-23T03:45:46.901Z,0.82
2022-11-23T03:48:16.952Z,0.83
2022-11-23T03:50:45.895Z,0.80
2022-11-23T03:53:15.591Z,0.82
2022-11-23T03:55:43.945Z,0.82
2022-11-23T03:58:12.152Z,0.82
2022-11-23T04:00:44.076Z,0.79
2022-11-23T04:03:13.309Z,0.79
2022-11-23T04:05:42.662Z,0.77
2022-11-23T04:08:12.964Z,0.79
2022-11-23T04:10:43.814Z,0.82
2022-11-23T04:13:11.790Z,0.79
2022-11-23T04:15:42.581Z,0.79
2022-11-23T04:18:16.213Z,0.76
2022-11-23T04:20:46.915Z,0.76
2022-11-23T04:23:16.576Z,0.76
2022-11-23T04:25:44.742Z,0.75
2022-11-23T04:28:14.873Z,0.75
2022-11-23T04:30:43.012Z,0.76
2022-11-23T04:33:12.788Z,0.75
2022-11-23T04:35:40.835Z,0.76
2022-11-23T04:38:10.641Z,0.73
2022-11-23T04:40:39.319Z,0.75
2022-11-23T04:43:08.040Z,0.73
2022-11-23T04:45:41.244Z,0.70
2022-11-23T04:48:09.531Z,0.72
2022-11-23T04:50:40.531Z,0.70
2022-11-23T04:53:10.310Z,0.70
2022-11-23T04:55:38.757Z,0.68
2022-11-23T04:58:07.004Z,0.68
2022-11-23T05:00:35.075Z,0.64
2022-11-23T05:03:03.462Z,0.64
2022-11-23T05:05:31.439Z,0.62
2022-11-23T05:08:00.262Z,0.64
2022-11-23T05:10:29.558Z,0.62
2022-11-23T05:12:57.789Z,0.61
2022-11-23T05:15:26.112Z,0.61
2022-11-23T05:17:59.015Z,0.64
2022-11-23T05:20:28.423Z,0.64
2022-11-23T05:22:56.833Z,0.66
2022-11-23T05:25:25.499Z,0.64
2022-11-23T05:27:54.948Z,0.64
2022-11-23T05:30:23.273Z,0.69
2022-11-23T05:32:51.818Z,0.69
2022-11-23T05:35:19.921Z,0.69
2022-11-23T05:37:49.194Z,0.66
2022-11-23T05:40:20.726Z,0.65
2022-11-23T05:42:49.366Z,0.64
2022-11-23T05:45:19.461Z,0.62
2022-11-23T05:47:51.440Z,0.58
2022-11-23T05:50:19.625Z,0.55
2022-11-23T05:52:47.811Z,0.55
2022-11-23T05:55:19.749Z,0.55
2022-11-23T05:57:47.926Z,0.56
2022-11-23T06:00:16.675Z,0.56
2022-11-23T06:02:46.613Z,0.65
2022-11-23T06:05:14.527Z,0.86
2022-11-23T06:07:43.551Z,1.00
2022-11-23T06:10:15.027Z,1.08
2022-11-23T06:12:43.318Z,1.20
2022-11-23T06:15:12.329Z,1.19
2022-11-23T06:17:40.379Z,1.10
2022-11-23T06:20:10.781Z,1.12
2022-11-23T06:22:39.021Z,1.13
2022-11-23T06:25:08.104Z,1.16
2022-11-23T06:27:36.712Z,1.08
2022-11-23T06:30:06.189Z,0.92
2022-11-23T06:32:34.431Z,0.80
2022-11-23T06:35:02.779Z,0.75
2022-11-23T06:37:33.298Z,0.65
2022-11-23T06:40:01.242Z,0.58
2022-11-23T06:42:44.879Z,0.51
2022-11-23T06:45:16.297Z,0.46
2022-11-23T06:47:48.423Z,0.42
2022-11-23T06:50:18.837Z,0.40
2022-11-23T06:52:48.767Z,0.33
2022-11-23T06:55:19.372Z,0.31
2022-11-23T06:57:47.462Z,0.28
2022-11-23T07:00:16.683Z,0.27
2022-11-23T07:02:44.720Z,0.27
2022-11-23T07:05:13.173Z,0.25
2022-11-23T07:07:41.889Z,0.24
2022-11-23T07:10:12.845Z,0.22
2022-11-23T07:12:41.775Z,0.22
2022-11-23T07:15:13.880Z,0.25
2022-11-23T07:17:44.486Z,0.19
2022-11-23T07:20:13.807Z,0.21
2022-11-23T07:22:41.790Z,0.21
2022-11-23T07:25:16.431Z,0.29
2022-11-23T07:27:44.758Z,0.31
2022-11-23T07:30:13.803Z,0.35
2022-11-23T07:32:42.348Z,0.41
2022-11-23T07:35:12.834Z,0.52
2022-11-23T07:37:49.860Z,0.58
2022-11-23T07:40:19.915Z,0.66
2022-11-23T07:42:48.638Z,0.75
2022-11-23T07:45:16.612Z,0.86
2022-11-23T07:47:45.187Z,0.92
2022-11-23T07:50:16.085Z,0.96
2022-11-23T07:52:44.648Z,1.03
2022-11-23T07:55:13.919Z,1.17
2022-11-23T07:57:43.370Z,1.27
2022-11-23T08:00:13.434Z,1.34
2022-11-23T08:02:57.867Z,1.51
2022-11-23T08:05:35.641Z,1.62
2022-11-23T08:08:04.219Z,1.69
2022-11-23T08:10:32.951Z,1.68
2022-11-23T08:13:05.528Z,1.72
2022-11-23T08:15:34.854Z,1.85
2022-11-23T08:18:04.848Z,1.98
2022-11-23T08:20:33.487Z,2.12
2022-11-23T08:23:01.550Z,2.24
2022-11-23T08:25:31.655Z,2.37
2022-11-23T08:28:01.150Z,2.52
2022-11-23T08:30:31.825Z,2.68
2022-11-23T08:33:00.512Z,2.87
2022-11-23T08:35:29.925Z,3.02
2022-11-23T08:38:00.734Z,3.16
2022-11-23T08:40:28.850Z,3.23
2022-11-23T08:42:56.956Z,3.30
2022-11-23T08:45:25.791Z,3.46
2022-11-23T08:47:55.837Z,3.56
2022-11-23T08:50:24.127Z,3.67
2022-11-23T08:52:56.262Z,3.78
2022-11-23T08:55:25.679Z,3.87
2022-11-23T08:57:57.529Z,3.92
2022-11-23T09:00:25.631Z,3.94
2022-11-23T09:03:00.176Z,4.01
2022-11-23T09:05:28.797Z,4.08
2022-11-23T09:08:00.670Z,4.16
2022-11-23T09:10:28.889Z,4.26
2022-11-23T09:12:56.849Z,4.30
2022-11-23T09:15:25.697Z,4.35
2022-11-23T09:17:53.799Z,4.39
2022-11-23T09:20:23.228Z,4.50
2022-11-23T09:22:52.557Z,4.63
2022-11-23T09:25:22.245Z,4.67
2022-11-23T09:27:51.458Z,4.70
2022-11-23T09:30:22.353Z,4.59
2022-11-23T09:32:50.773Z,4.52
2022-11-23T09:35:18.755Z,4.52
2022-11-23T09:37:48.666Z,4.57
2022-11-23T09:40:18.322Z,4.56
2022-11-23T09:42:58.319Z,4.54
2022-11-23T09:45:32.277Z,4.53
2022-11-23T09:48:35.764Z,4.56
2022-11-23T09:51:07.898Z,4.60
2022-11-23T09:53:41.188Z,4.59
2022-11-23T09:56:16.944Z,4.60
2022-11-23T09:58:44.999Z,4.61
2022-11-23T10:01:17.261Z,4.64
2022-11-23T10:03:48.716Z,4.66
2022-11-23T10:06:20.616Z,4.70
2022-11-23T10:08:57.055Z,4.76
2022-11-23T10:11:43.653Z,4.77
2022-11-23T10:14:24.788Z,4.83
2022-11-23T10:16:58.439Z,4.85
2022-11-23T10:19:36.109Z,4.94
2022-11-23T10:22:09.380Z,4.99
2022-11-23T10:24:40.770Z,5.01
2022-11-23T10:27:13.711Z,5.04
2022-11-23T10:29:45.590Z,5.09
2022-11-23T10:32:23.825Z,5.12
2022-11-23T10:35:01.646Z,5.15
2022-11-23T10:37:29.715Z,5.21
2022-11-23T10:39:59.108Z,5.25
2022-11-23T10:42:40.471Z,5.32
2022-11-23T10:45:22.089Z,5.38
2022-11-23T10:47:53.314Z,5.40
2022-11-23T10:50:27.872Z,5.42
2022-11-23T10:53:01.850Z,5.45
2022-11-23T10:55:34.332Z,5.46
2022-11-23T10:58:02.820Z,5.46
2022-11-23T11:00:31.721Z,5.49
2022-11-23T11:03:03.523Z,5.55
2022-11-23T11:08:26.060Z,5.57
2022-11-23T11:11:01.389Z,5.59
2022-11-23T11:13:35.438Z,5.60
2022-11-23T11:16:05.184Z,5.63
2022-11-23T11:18:40.253Z,5.65
2022-11-23T11:21:16.581Z,5.70
2022-11-23T11:23:47.806Z,5.73
2022-11-23T11:26:24.606Z,5.77
2022-11-23T11:28:55.195Z,5.84
2022-11-23T11:31:37.665Z,5.87
2022-11-23T11:34:07.608Z,5.90
2022-11-23T11:36:44.039Z,5.95
2022-11-23T11:39:19.734Z,5.95
2022-11-23T11:41:51.150Z,6.04
2022-11-23T11:44:22.897Z,6.13
2022-11-23T11:46:58.454Z,6.17
2022-11-23T11:49:31.385Z,6.21
2022-11-23T11:52:05.385Z,6.24
2022-11-23T11:54:40.089Z,6.26
2022-11-23T11:57:16.753Z,6.28
2022-11-23T11:59:47.162Z,6.31
2022-11-23T12:02:25.467Z,6.32
2022-11-23T12:05:01.420Z,6.38
2022-11-23T12:07:32.075Z,6.35
2022-11-23T12:10:06.330Z,6.44
2022-11-23T12:12:37.763Z,6.68
2022-11-23T12:15:33.297Z,6.89
2022-11-23T12:18:22.929Z,6.92
2022-11-23T12:20:57.315Z,6.96
2022-11-23T12:23:34.971Z,7.00
2022-11-23T12:26:13.774Z,7.10
2022-11-23T12:28:50.059Z,7.11
2022-11-23T12:31:26.942Z,7.13
2022-11-23T12:34:04.287Z,7.11
2022-11-23T12:36:58.822Z,7.11
2022-11-23T12:39:43.193Z,7.05
2022-11-23T12:42:15.565Z,7.08
2022-11-23T12:45:06.809Z,7.10
2022-11-23T12:47:42.858Z,7.11
2022-11-23T12:50:21.744Z,7.14
2022-11-23T12:53:04.643Z,7.18
2022-11-23T12:55:39.669Z,7.17
2022-11-23T12:58:14.623Z,7.18
2022-11-23T13:00:49.182Z,7.20
2022-11-23T13:03:55.291Z,7.24
2022-11-23T13:07:20.652Z,7.24
2022-11-23T13:10:04.772Z,7.27
2022-11-23T13:12:47.198Z,7.34
2022-11-23T13:15:19.585Z,7.35
2022-11-23T13:17:56.214Z,7.36
2022-11-23T13:20:59.429Z,7.36
2022-11-23T13:23:27.924Z,7.42
2022-11-23T13:26:17.801Z,7.42
2022-11-23T13:28:47.840Z,7.44
2022-11-23T13:31:23.586Z,7.50
2022-11-23T13:33:55.297Z,7.48
2022-11-23T13:37:11.038Z,7.54
2022-11-23T13:40:03.619Z,7.51
2022-11-23T13:42:34.133Z,7.54
2022-11-23T13:45:17.943Z,7.54
2022-11-23T13:48:41.129Z,7.58
2022-11-23T13:51:03.998Z,7.66
2022-11-23T13:53:34.435Z,7.66
2022-11-23T13:56:19.771Z,7.62
2022-11-23T13:58:56.513Z,7.54
2022-11-23T14:02:00.848Z,7.47
2022-11-23T14:04:30.681Z,7.40
2022-11-23T14:07:04.541Z,7.32
2022-11-23T14:09:36.376Z,7.25
2022-11-23T14:12:09.884Z,7.20
2022-11-23T14:14:46.939Z,7.13
2022-11-23T14:17:48.496Z,7.08
2022-11-23T14:20:26.424Z,7.01
2022-11-23T14:23:15.610Z,6.94
2022-11-23T14:25:50.294Z,6.93
2022-11-23T14:28:28.644Z,6.93
2022-11-23T14:31:08.466Z,6.90
2022-11-23T14:33:41.796Z,6.86
2022-11-23T14:36:26.154Z,6.82
2022-11-23T14:39:26.909Z,6.75
2022-11-23T14:41:57.875Z,6.66
2022-11-23T14:44:32.908Z,6.57
2022-11-23T14:47:05.494Z,6.52
2022-11-23T14:49:34.038Z,6.45
2022-11-23T14:52:02.933Z,6.42
2022-11-23T14:54:33.712Z,6.39
2022-11-23T14:57:04.583Z,6.44
2022-11-23T14:59:34.998Z,6.44
2022-11-23T15:02:04.369Z,6.48
2022-11-23T15:04:37.120Z,6.48
2022-11-23T15:07:06.718Z,6.44
2022-11-23T15:09:45.598Z,6.42
2022-11-23T15:12:23.346Z,6.41
2022-11-23T15:14:52.106Z,6.36
2022-11-23T15:17:21.310Z,6.31
2022-11-23T15:20:02.045Z,6.25
2022-11-23T15:22:31.190Z,6.22
2022-11-23T15:25:29.909Z,6.18
2022-11-23T15:27:59.379Z,6.10
2022-11-23T15:30:29.316Z,6.03
2022-11-23T15:33:01.371Z,5.97
2022-11-23T15:35:32.797Z,5.94
2022-11-23T15:38:02.147Z,5.89
2022-11-23T15:40:31.412Z,5.89
2022-11-23T15:43:01.486Z,5.87
2022-11-23T15:45:59.900Z,5.84
2022-11-23T15:48:30.064Z,5.82
2022-11-23T15:50:59.538Z,5.78
2022-11-23T15:53:29.088Z,5.74
2022-11-23T15:56:01.279Z,5.71
2022-11-23T15:58:31.675Z,5.66
2022-11-23T16:01:07.766Z,5.63
2022-11-23T16:03:42.617Z,5.57
2022-11-23T16:06:19.325Z,5.55
2022-11-23T16:08:47.514Z,5.50
2022-11-23T16:11:26.333Z,5.45
2022-11-23T16:14:26.758Z,5.42
2022-11-23T16:17:05.921Z,5.35
2022-11-23T16:19:35.497Z,5.31
2022-11-23T16:22:06.165Z,5.25
2022-11-23T16:24:37.236Z,5.22
2022-11-23T16:27:14.334Z,5.15
2022-11-23T16:29:44.347Z,5.04
2022-11-23T16:32:24.461Z,4.99
2022-11-23T16:34:53.311Z,4.94
2022-11-23T16:37:22.927Z,4.88
2022-11-23T16:39:51.106Z,4.80
2022-11-23T16:42:19.358Z,4.71
2022-11-23T16:44:50.522Z,4.63
2022-11-23T16:47:24.255Z,4.56
2022-11-23T16:49:59.504Z,4.47
2022-11-23T16:52:33.737Z,4.42
2022-11-23T16:55:02.368Z,4.38
2022-11-23T16:57:35.466Z,4.30
2022-11-23T17:00:10.294Z,4.26
2022-11-23T17:02:43.855Z,4.23
2022-11-23T17:05:16.619Z,4.20
2022-11-23T17:07:44.721Z,4.13
2022-11-23T17:10:14.334Z,4.12
2022-11-23T17:12:53.964Z,4.05
2022-11-23T17:15:25.288Z,3.98
2022-11-23T17:17:53.903Z,3.97
2022-11-23T17:20:28.212Z,3.94
2022-11-23T17:23:01.307Z,3.88
2022-11-23T17:25:32.319Z,3.88
2022-11-23T17:28:01.439Z,3.81
2022-11-23T17:30:31.500Z,3.77
2022-11-23T17:33:01.833Z,3.73
2022-11-23T17:35:32.778Z,3.73
2022-11-23T17:38:06.331Z,3.70
2022-11-23T17:40:35.981Z,3.63
2022-11-23T17:43:03.997Z,3.61
2022-11-23T17:45:36.772Z,3.57
2022-11-23T17:48:09.238Z,3.56
2022-11-23T17:50:37.497Z,3.47
2022-11-23T17:53:05.631Z,3.44
2022-11-23T17:55:34.683Z,3.41
2022-11-23T17:58:02.662Z,3.37
2022-11-23T18:00:31.720Z,3.29
2022-11-23T18:03:01.784Z,3.27
2022-11-23T18:05:31.694Z,3.22
2022-11-23T18:08:05.688Z,3.16
2022-11-23T18:10:35.694Z,3.12
2022-11-23T18:13:03.962Z,3.10
2022-11-23T18:15:32.481Z,3.06
2022-11-23T18:18:04.855Z,3.05
2022-11-23T18:20:35.665Z,3.01
2022-11-23T18:23:07.215Z,2.96
2022-11-23T18:25:35.686Z,2.95
2022-11-23T18:28:04.156Z,2.93
2022-11-23T18:30:32.457Z,2.91
2022-11-23T18:33:02.621Z,2.91
2022-11-23T18:35:30.577Z,2.82
2022-11-23T18:37:58.553Z,2.78
2022-11-23T18:40:26.556Z,2.80
2022-11-23T18:42:54.873Z,2.77
2022-11-23T18:45:23.418Z,2.75
2022-11-23T18:47:52.950Z,2.74
2022-11-23T18:50:22.951Z,2.70
2022-11-23T18:52:52.069Z,2.62
2022-11-23T18:55:21.715Z,2.61
2022-11-23T18:57:52.162Z,2.60
2022-11-23T19:00:22.207Z,2.55
2022-11-23T19:02:54.181Z,2.52
2022-11-23T19:05:25.545Z,2.52
2022-11-23T19:07:53.603Z,2.54
2022-11-23T19:10:21.827Z,2.52
2022-11-23T19:12:49.859Z,2.48
2022-11-23T19:15:18.000Z,2.45
2022-11-23T19:17:49.391Z,2.44
2022-11-23T19:20:18.613Z,2.40
2022-11-23T19:22:48.341Z,2.36
2022-11-23T19:25:16.340Z,2.34
2022-11-23T19:27:45.944Z,2.33
2022-11-23T19:30:18.087Z,2.29
2022-11-23T19:32:47.568Z,2.24
2022-11-23T19:35:17.181Z,2.19
2022-11-23T19:37:47.421Z,2.16
2022-11-23T19:40:22.630Z,2.12
2022-11-23T19:42:51.309Z,2.09
2022-11-23T19:45:19.738Z,2.06
2022-11-23T19:47:48.017Z,2.01
2022-11-23T19:50:16.999Z,1.98
2022-11-23T19:53:10.518Z,1.98
2022-11-23T19:55:36.150Z,1.95
2022-11-23T19:58:04.199Z,1.95
2022-11-23T20:00:32.264Z,1.92
2022-11-23T20:03:00.670Z,1.91
2022-11-23T20:05:29.870Z,1.86
2022-11-23T20:07:58.348Z,1.86
2022-11-23T20:10:26.548Z,1.85
2022-11-23T20:12:57.349Z,1.86
2022-11-23T20:15:25.902Z,1.83
2022-11-23T20:17:54.142Z,1.81
2022-11-23T20:20:22.722Z,1.81
2022-11-23T20:22:50.903Z,1.78
2022-11-23T20:25:19.949Z,1.73
2022-11-23T20:27:48.069Z,1.69
2022-11-23T20:30:19.124Z,1.68
2022-11-23T20:32:51.745Z,1.64
2022-11-23T20:35:20.253Z,1.64
2022-11-23T20:37:48.507Z,1.59
2022-11-23T20:40:17.101Z,1.56
2022-11-23T20:42:45.304Z,1.50
2022-11-23T20:45:14.528Z,1.51
2022-11-23T20:47:44.668Z,1.48
2022-11-23T20:50:12.910Z,1.44
2022-11-23T20:52:40.859Z,1.40
2022-11-23T20:55:09.655Z,1.44
2022-11-23T20:57:38.034Z,1.40
2022-11-23T21:00:07.442Z,1.41
2022-11-23T21:02:37.924Z,1.38
2022-11-23T21:05:09.061Z,1.35
2022-11-23T21:07:37.087Z,1.33
2022-11-23T21:10:05.707Z,1.35
2022-11-23T21:12:52.279Z,1.33
2022-11-23T21:15:20.344Z,1.26
2022-11-23T21:17:48.711Z,1.20
2022-11-23T21:20:18.161Z,1.16
2022-11-23T21:22:46.591Z,1.19
2022-11-23T21:25:14.945Z,1.20
2022-11-23T21:27:44.127Z,1.20
2022-11-23T21:30:15.592Z,1.22
2022-11-23T21:32:46.131Z,1.20
2022-11-23T21:35:14.213Z,1.20
2022-11-23T21:37:44.183Z,1.20
2022-11-23T21:40:13.331Z,1.22
2022-11-23T21:42:41.422Z,1.17
2022-11-23T21:45:10.264Z,1.19
2022-11-23T21:47:38.369Z,1.17
2022-11-23T21:50:08.967Z,1.17
2022-11-23T21:52:36.916Z,1.17
2022-11-23T21:55:11.731Z,1.20
2022-11-23T21:57:40.192Z,1.19
2022-11-23T22:00:10.044Z,1.20
2022-11-23T22:02:38.884Z,1.20
2022-11-23T22:05:07.855Z,1.22
2022-11-23T22:07:38.963Z,1.22
2022-11-23T22:10:12.834Z,1.22
2022-11-23T22:12:41.101Z,1.22
2022-11-23T22:15:12.290Z,1.24
2022-11-23T22:17:41.326Z,1.22
2022-11-23T22:20:11.606Z,1.19
2022-11-23T22:22:41.866Z,1.19
2022-11-23T22:25:12.521Z,1.14
2022-11-23T22:27:52.919Z,1.14
2022-11-23T22:30:22.201Z,1.17
2022-11-23T22:32:51.176Z,1.13
2022-11-23T22:35:19.154Z,1.12
2022-11-23T22:37:47.247Z,1.12
2022-11-23T22:40:19.667Z,1.06
2022-11-23T22:42:48.361Z,1.03
2022-11-23T22:45:19.138Z,0.97
2022-11-23T22:47:47.514Z,0.96
2022-11-23T22:50:17.480Z,0.96
2022-11-23T22:52:48.535Z,0.93
2022-11-23T22:55:18.522Z,0.90
2022-11-23T22:57:46.545Z,0.86
2022-11-23T23:00:17.564Z,0.82
2022-11-23T23:02:47.175Z,0.79
2022-11-23T23:05:15.936Z,0.76
2022-11-23T23:07:44.321Z,0.77
2022-11-23T23:10:12.921Z,0.77
2022-11-23T23:12:42.471Z,0.79
2022-11-23T23:15:12.365Z,0.76
2022-11-23T23:17:40.689Z,0.77
2022-11-23T23:20:10.058Z,0.75
2022-11-23T23:22:38.903Z,0.77
2022-11-23T23:25:09.753Z,0.73
2022-11-23T23:27:38.203Z,0.73
2022-11-23T23:30:10.200Z,0.70
2022-11-23T23:32:51.261Z,0.68
2022-11-23T23:35:19.978Z,0.69
2022-11-23T23:37:51.088Z,0.66
2022-11-23T23:40:19.175Z,0.68
2022-11-23T23:42:47.568Z,0.64
2022-11-23T23:45:17.103Z,0.64
2022-11-23T23:47:45.174Z,0.62
2022-11-23T23:50:17.389Z,0.64
2022-11-23T23:52:45.675Z,0.65
2022-11-23T23:55:13.578Z,0.61
2022-11-23T23:57:41.646Z,0.62
